sensor_id;sensor_type;location;lat;lon;timestamp;P1;durP1;ratioP1;P2;durP2;ratioP2
4583;SDS011;2304;47.606;12.186;2023-12-20T00:03:59;14.00;;;8.57;;
4583;SDS011;2304;47.606;12.186;2023-12-20T00:09:02;16.57;;;8.43;;
4583;SDS011;2304;47.606;12.186;2023-12-20T00:14:06;17.53;;;8.77;;
4583;SDS011;2304;47.606;12.186;2023-12-20T00:19:08;14.00;;;8.17;;
4583;SDS011;2304;47.606;12.186;2023-12-20T00:24:11;20.30;;;8.60;;
4583;SDS011;2304;47.606;12.186;2023-12-20T00:29:13;12.57;;;7.13;;
4583;SDS011;2304;47.606;12.186;2023-12-20T00:34:15;17.23;;;7.57;;
4583;SDS011;2304;47.606;12.186;2023-12-20T00:39:18;12.23;;;7.20;;
4583;SDS011;2304;47.606;12.186;2023-12-20T00:44:20;11.27;;;6.43;;
4583;SDS011;2304;47.606;12.186;2023-12-20T00:49:22;11.20;;;6.90;;
4583;SDS011;2304;47.606;12.186;2023-12-20T00:54:25;13.30;;;7.40;;
4583;SDS011;2304;47.606;12.186;2023-12-20T00:59:27;14.03;;;7.47;;
4583;SDS011;2304;47.606;12.186;2023-12-20T01:04:29;14.33;;;7.60;;
4583;SDS011;2304;47.606;12.186;2023-12-20T01:09:32;19.07;;;8.10;;
4583;SDS011;2304;47.606;12.186;2023-12-20T01:14:34;12.73;;;6.90;;
4583;SDS011;2304;47.606;12.186;2023-12-20T01:19:35;12.17;;;6.93;;
4583;SDS011;2304;47.606;12.186;2023-12-20T01:24:39;11.90;;;6.97;;
4583;SDS011;2304;47.606;12.186;2023-12-20T01:29:40;13.33;;;7.37;;
4583;SDS011;2304;47.606;12.186;2023-12-20T01:34:42;12.33;;;6.87;;
4583;SDS011;2304;47.606;12.186;2023-12-20T01:39:45;14.90;;;7.40;;
4583;SDS011;2304;47.606;12.186;2023-12-20T01:44:47;11.23;;;6.30;;
4583;SDS011;2304;47.606;12.186;2023-12-20T01:49:49;10.87;;;6.80;;
4583;SDS011;2304;47.606;12.186;2023-12-20T01:54:53;13.43;;;6.70;;
4583;SDS011;2304;47.606;12.186;2023-12-20T02:00:01;12.03;;;7.00;;
4583;SDS011;2304;47.606;12.186;2023-12-20T02:05:03;9.97;;;6.80;;
4583;SDS011;2304;47.606;12.186;2023-12-20T02:10:08;10.90;;;7.07;;
4583;SDS011;2304;47.606;12.186;2023-12-20T02:15:10;11.60;;;7.30;;
4583;SDS011;2304;47.606;12.186;2023-12-20T02:20:12;14.10;;;7.20;;
4583;SDS011;2304;47.606;12.186;2023-12-20T02:25:15;11.30;;;7.07;;
4583;SDS011;2304;47.606;12.186;2023-12-20T02:30:17;10.10;;;7.10;;
4583;SDS011;2304;47.606;12.186;2023-12-20T02:35:19;15.67;;;6.20;;
4583;SDS011;2304;47.606;12.186;2023-12-20T02:40:22;12.17;;;7.03;;
4583;SDS011;2304;47.606;12.186;2023-12-20T02:45:24;11.70;;;6.53;;
4583;SDS011;2304;47.606;12.186;2023-12-20T02:50:26;12.20;;;7.20;;
4583;SDS011;2304;47.606;12.186;2023-12-20T02:55:29;11.63;;;6.93;;
4583;SDS011;2304;47.606;12.186;2023-12-20T03:00:31;11.43;;;6.67;;
4583;SDS011;2304;47.606;12.186;2023-12-20T03:05:33;15.03;;;6.53;;
4583;SDS011;2304;47.606;12.186;2023-12-20T03:10:36;16.30;;;6.50;;
4583;SDS011;2304;47.606;12.186;2023-12-20T03:15:38;13.97;;;6.50;;
4583;SDS011;2304;47.606;12.186;2023-12-20T03:20:40;10.53;;;6.83;;
4583;SDS011;2304;47.606;12.186;2023-12-20T03:25:43;9.37;;;6.27;;
4583;SDS011;2304;47.606;12.186;2023-12-20T03:30:45;8.93;;;6.00;;
4583;SDS011;2304;47.606;12.186;2023-12-20T03:35:47;14.50;;;7.70;;
4583;SDS011;2304;47.606;12.186;2023-12-20T03:40:50;14.30;;;7.67;;
4583;SDS011;2304;47.606;12.186;2023-12-20T03:45:52;14.50;;;7.23;;
4583;SDS011;2304;47.606;12.186;2023-12-20T03:50:54;18.50;;;6.40;;
4583;SDS011;2304;47.606;12.186;2023-12-20T03:55:57;11.20;;;7.13;;
4583;SDS011;2304;47.606;12.186;2023-12-20T04:00:58;11.30;;;6.13;;
4583;SDS011;2304;47.606;12.186;2023-12-20T04:06:00;9.30;;;6.83;;
4583;SDS011;2304;47.606;12.186;2023-12-20T04:11:04;11.27;;;6.90;;
4583;SDS011;2304;47.606;12.186;2023-12-20T04:16:07;12.27;;;6.53;;
4583;SDS011;2304;47.606;12.186;2023-12-20T04:26:14;12.03;;;6.87;;
4583;SDS011;2304;47.606;12.186;2023-12-20T04:31:16;13.20;;;7.03;;
4583;SDS011;2304;47.606;12.186;2023-12-20T04:36:17;13.40;;;7.60;;
4583;SDS011;2304;47.606;12.186;2023-12-20T04:41:21;14.37;;;7.37;;
4583;SDS011;2304;47.606;12.186;2023-12-20T04:46:23;10.33;;;6.47;;
4583;SDS011;2304;47.606;12.186;2023-12-20T04:51:24;12.70;;;7.20;;
4583;SDS011;2304;47.606;12.186;2023-12-20T04:56:28;12.37;;;6.40;;
4583;SDS011;2304;47.606;12.186;2023-12-20T05:01:30;10.07;;;7.57;;
4583;SDS011;2304;47.606;12.186;2023-12-20T05:06:31;13.23;;;6.80;;
4583;SDS011;2304;47.606;12.186;2023-12-20T05:11:35;20.87;;;13.83;;
4583;SDS011;2304;47.606;12.186;2023-12-20T05:16:36;16.10;;;9.93;;
4583;SDS011;2304;47.606;12.186;2023-12-20T05:21:38;38.63;;;20.03;;
4583;SDS011;2304;47.606;12.186;2023-12-20T05:26:42;13.67;;;8.37;;
4583;SDS011;2304;47.606;12.186;2023-12-20T05:31:43;18.43;;;10.40;;
4583;SDS011;2304;47.606;12.186;2023-12-20T05:36:45;28.40;;;13.27;;
4583;SDS011;2304;47.606;12.186;2023-12-20T05:41:49;14.90;;;8.47;;
4583;SDS011;2304;47.606;12.186;2023-12-20T05:46:50;18.27;;;11.10;;
4583;SDS011;2304;47.606;12.186;2023-12-20T05:51:52;15.40;;;10.13;;
4583;SDS011;2304;47.606;12.186;2023-12-20T05:56:55;13.53;;;9.10;;
4583;SDS011;2304;47.606;12.186;2023-12-20T06:01:57;19.43;;;10.83;;
4583;SDS011;2304;47.606;12.186;2023-12-20T06:06:59;31.60;;;17.07;;
4583;SDS011;2304;47.606;12.186;2023-12-20T06:12:02;12.03;;;7.60;;
4583;SDS011;2304;47.606;12.186;2023-12-20T06:17:06;15.03;;;9.00;;
4583;SDS011;2304;47.606;12.186;2023-12-20T06:22:08;15.43;;;8.03;;
4583;SDS011;2304;47.606;12.186;2023-12-20T06:27:12;11.97;;;6.97;;
4583;SDS011;2304;47.606;12.186;2023-12-20T06:32:14;20.40;;;10.30;;
4583;SDS011;2304;47.606;12.186;2023-12-20T06:37:16;19.33;;;9.27;;
4583;SDS011;2304;47.606;12.186;2023-12-20T06:42:19;12.87;;;8.40;;
4583;SDS011;2304;47.606;12.186;2023-12-20T06:47:21;18.13;;;10.00;;
4583;SDS011;2304;47.606;12.186;2023-12-20T06:52:22;14.87;;;8.77;;
4583;SDS011;2304;47.606;12.186;2023-12-20T06:57:26;13.03;;;7.93;;
4583;SDS011;2304;47.606;12.186;2023-12-20T07:02:27;16.00;;;10.20;;
4583;SDS011;2304;47.606;12.186;2023-12-20T07:07:30;12.03;;;8.20;;
4583;SDS011;2304;47.606;12.186;2023-12-20T07:12:33;11.23;;;7.60;;
4583;SDS011;2304;47.606;12.186;2023-12-20T07:17:35;18.60;;;10.40;;
4583;SDS011;2304;47.606;12.186;2023-12-20T07:22:37;14.70;;;8.73;;
4583;SDS011;2304;47.606;12.186;2023-12-20T07:27:40;16.03;;;9.30;;
4583;SDS011;2304;47.606;12.186;2023-12-20T07:32:42;16.60;;;9.13;;
4583;SDS011;2304;47.606;12.186;2023-12-20T07:37:44;12.77;;;8.10;;
4583;SDS011;2304;47.606;12.186;2023-12-20T07:42:47;19.80;;;9.70;;
4583;SDS011;2304;47.606;12.186;2023-12-20T07:47:49;11.60;;;6.60;;
4583;SDS011;2304;47.606;12.186;2023-12-20T07:52:51;12.00;;;7.17;;
4583;SDS011;2304;47.606;12.186;2023-12-20T07:57:54;20.00;;;9.77;;
4583;SDS011;2304;47.606;12.186;2023-12-20T08:02:56;16.70;;;8.43;;
4583;SDS011;2304;47.606;12.186;2023-12-20T08:07:58;13.60;;;8.17;;
4583;SDS011;2304;47.606;12.186;2023-12-20T08:13:01;15.43;;;8.90;;
4583;SDS011;2304;47.606;12.186;2023-12-20T08:18:03;15.50;;;9.00;;
4583;SDS011;2304;47.606;12.186;2023-12-20T08:23:06;13.00;;;7.90;;
4583;SDS011;2304;47.606;12.186;2023-12-20T08:28:09;18.70;;;10.07;;
4583;SDS011;2304;47.606;12.186;2023-12-20T08:33:11;16.80;;;9.40;;
4583;SDS011;2304;47.606;12.186;2023-12-20T08:38:13;17.27;;;10.10;;
4583;SDS011;2304;47.606;12.186;2023-12-20T08:43:16;16.30;;;9.10;;
4583;SDS011;2304;47.606;12.186;2023-12-20T08:48:18;17.27;;;9.67;;
4583;SDS011;2304;47.606;12.186;2023-12-20T08:53:20;13.00;;;8.23;;
4583;SDS011;2304;47.606;12.186;2023-12-20T08:58:23;21.00;;;9.10;;
4583;SDS011;2304;47.606;12.186;2023-12-20T09:03:25;20.27;;;10.23;;
4583;SDS011;2304;47.606;12.186;2023-12-20T09:08:27;17.40;;;10.70;;
4583;SDS011;2304;47.606;12.186;2023-12-20T09:13:30;18.00;;;11.13;;
4583;SDS011;2304;47.606;12.186;2023-12-20T09:18:32;16.20;;;9.90;;
4583;SDS011;2304;47.606;12.186;2023-12-20T09:23:34;19.13;;;10.67;;
4583;SDS011;2304;47.606;12.186;2023-12-20T09:28:38;25.90;;;14.80;;
4583;SDS011;2304;47.606;12.186;2023-12-20T09:33:40;62.10;;;29.80;;
4583;SDS011;2304;47.606;12.186;2023-12-20T09:38:42;21.13;;;12.23;;
4583;SDS011;2304;47.606;12.186;2023-12-20T09:43:45;18.93;;;12.07;;
4583;SDS011;2304;47.606;12.186;2023-12-20T09:48:49;18.63;;;9.97;;
4583;SDS011;2304;47.606;12.186;2023-12-20T09:53:51;17.07;;;10.00;;
4583;SDS011;2304;47.606;12.186;2023-12-20T09:58:59;17.40;;;9.17;;
4583;SDS011;2304;47.606;12.186;2023-12-20T10:04:01;20.87;;;10.30;;
4583;SDS011;2304;47.606;12.186;2023-12-20T10:09:07;17.93;;;10.00;;
4583;SDS011;2304;47.606;12.186;2023-12-20T10:14:10;16.40;;;9.73;;
4583;SDS011;2304;47.606;12.186;2023-12-20T10:19:12;18.90;;;10.10;;
4583;SDS011;2304;47.606;12.186;2023-12-20T10:24:18;17.13;;;9.77;;
4583;SDS011;2304;47.606;12.186;2023-12-20T10:29:21;20.20;;;10.27;;
4583;SDS011;2304;47.606;12.186;2023-12-20T10:34:24;19.47;;;9.97;;
4583;SDS011;2304;47.606;12.186;2023-12-20T10:39:26;18.57;;;11.00;;
4583;SDS011;2304;47.606;12.186;2023-12-20T10:44:30;22.90;;;10.03;;
4583;SDS011;2304;47.606;12.186;2023-12-20T10:49:31;15.80;;;9.40;;
4583;SDS011;2304;47.606;12.186;2023-12-20T10:54:38;16.90;;;9.10;;
4583;SDS011;2304;47.606;12.186;2023-12-20T10:59:41;19.30;;;10.73;;
4583;SDS011;2304;47.606;12.186;2023-12-20T11:04:47;19.90;;;11.10;;
4583;SDS011;2304;47.606;12.186;2023-12-20T11:09:56;24.20;;;13.10;;
4583;SDS011;2304;47.606;12.186;2023-12-20T11:15:02;21.10;;;12.40;;
4583;SDS011;2304;47.606;12.186;2023-12-20T11:20:06;21.00;;;12.30;;
4583;SDS011;2304;47.606;12.186;2023-12-20T11:25:10;20.93;;;13.13;;
4583;SDS011;2304;47.606;12.186;2023-12-20T11:30:14;29.23;;;11.83;;
4583;SDS011;2304;47.606;12.186;2023-12-20T11:35:17;28.17;;;15.10;;
4583;SDS011;2304;47.606;12.186;2023-12-20T11:40:20;19.97;;;13.43;;
4583;SDS011;2304;47.606;12.186;2023-12-20T11:45:26;19.33;;;13.60;;
4583;SDS011;2304;47.606;12.186;2023-12-20T11:50:28;20.30;;;13.33;;
4583;SDS011;2304;47.606;12.186;2023-12-20T11:55:31;18.47;;;11.27;;
4583;SDS011;2304;47.606;12.186;2023-12-20T12:00:38;17.67;;;10.67;;
4583;SDS011;2304;47.606;12.186;2023-12-20T12:05:39;15.80;;;9.80;;
4583;SDS011;2304;47.606;12.186;2023-12-20T12:10:41;22.70;;;11.13;;
4583;SDS011;2304;47.606;12.186;2023-12-20T12:21:19;16.37;;;11.07;;
4583;SDS011;2304;47.606;12.186;2023-12-20T12:26:24;18.67;;;12.00;;
4583;SDS011;2304;47.606;12.186;2023-12-20T12:31:26;24.33;;;12.67;;
4583;SDS011;2304;47.606;12.186;2023-12-20T12:36:30;24.20;;;12.10;;
4583;SDS011;2304;47.606;12.186;2023-12-20T12:41:32;17.73;;;11.10;;
4583;SDS011;2304;47.606;12.186;2023-12-20T12:46:33;18.50;;;11.50;;
4583;SDS011;2304;47.606;12.186;2023-12-20T12:51:37;17.20;;;10.17;;
4583;SDS011;2304;47.606;12.186;2023-12-20T12:56:38;28.67;;;16.63;;
4583;SDS011;2304;47.606;12.186;2023-12-20T13:01:40;9.70;;;6.43;;
4583;SDS011;2304;47.606;12.186;2023-12-20T13:06:43;7.50;;;4.40;;
4583;SDS011;2304;47.606;12.186;2023-12-20T13:11:47;5.20;;;3.30;;
4583;SDS011;2304;47.606;12.186;2023-12-20T13:16:48;5.03;;;3.87;;
4583;SDS011;2304;47.606;12.186;2023-12-20T13:21:52;7.73;;;4.03;;
4583;SDS011;2304;47.606;12.186;2023-12-20T13:26:54;4.67;;;2.73;;
4583;SDS011;2304;47.606;12.186;2023-12-20T13:31:55;8.00;;;2.90;;
4583;SDS011;2304;47.606;12.186;2023-12-20T13:36:59;3.77;;;2.10;;
4583;SDS011;2304;47.606;12.186;2023-12-20T13:42:00;4.77;;;3.40;;
4583;SDS011;2304;47.606;12.186;2023-12-20T13:47:02;4.70;;;3.30;;
4583;SDS011;2304;47.606;12.186;2023-12-20T13:52:06;3.80;;;1.97;;
4583;SDS011;2304;47.606;12.186;2023-12-20T13:57:08;4.80;;;2.03;;
4583;SDS011;2304;47.606;12.186;2023-12-20T14:02:09;5.83;;;3.73;;
4583;SDS011;2304;47.606;12.186;2023-12-20T14:07:13;5.40;;;3.20;;
4583;SDS011;2304;47.606;12.186;2023-12-20T14:12:17;10.10;;;4.53;;
4583;SDS011;2304;47.606;12.186;2023-12-20T14:17:20;6.30;;;4.73;;
4583;SDS011;2304;47.606;12.186;2023-12-20T14:22:23;7.80;;;4.20;;
4583;SDS011;2304;47.606;12.186;2023-12-20T14:27:25;6.40;;;2.90;;
4583;SDS011;2304;47.606;12.186;2023-12-20T14:32:28;4.87;;;3.13;;
4583;SDS011;2304;47.606;12.186;2023-12-20T14:37:32;2.93;;;2.00;;
4583;SDS011;2304;47.606;12.186;2023-12-20T14:42:34;2.03;;;1.33;;
4583;SDS011;2304;47.606;12.186;2023-12-20T14:47:36;3.03;;;2.00;;
4583;SDS011;2304;47.606;12.186;2023-12-20T14:52:39;6.30;;;3.70;;
4583;SDS011;2304;47.606;12.186;2023-12-20T14:57:41;6.20;;;2.70;;
4583;SDS011;2304;47.606;12.186;2023-12-20T15:02:43;5.57;;;2.80;;
4583;SDS011;2304;47.606;12.186;2023-12-20T15:07:46;15.40;;;9.10;;
4583;SDS011;2304;47.606;12.186;2023-12-20T15:12:48;4.03;;;2.60;;
4583;SDS011;2304;47.606;12.186;2023-12-20T15:17:50;3.47;;;2.17;;
4583;SDS011;2304;47.606;12.186;2023-12-20T15:22:53;5.87;;;2.87;;
4583;SDS011;2304;47.606;12.186;2023-12-20T15:27:58;11.60;;;9.13;;
4583;SDS011;2304;47.606;12.186;2023-12-20T15:33:02;19.60;;;17.60;;
4583;SDS011;2304;47.606;12.186;2023-12-20T15:38:06;4.73;;;2.70;;
4583;SDS011;2304;47.606;12.186;2023-12-20T15:43:07;3.20;;;2.50;;
4583;SDS011;2304;47.606;12.186;2023-12-20T15:48:09;6.57;;;4.47;;
4583;SDS011;2304;47.606;12.186;2023-12-20T15:53:16;10.00;;;6.03;;
4583;SDS011;2304;47.606;12.186;2023-12-20T15:58:17;8.23;;;5.43;;
4583;SDS011;2304;47.606;12.186;2023-12-20T16:03:19;10.97;;;7.90;;
4583;SDS011;2304;47.606;12.186;2023-12-20T16:08:22;25.20;;;11.00;;
4583;SDS011;2304;47.606;12.186;2023-12-20T16:13:24;16.07;;;10.43;;
4583;SDS011;2304;47.606;12.186;2023-12-20T16:18:27;12.60;;;8.40;;
4583;SDS011;2304;47.606;12.186;2023-12-20T16:23:30;24.23;;;14.33;;
4583;SDS011;2304;47.606;12.186;2023-12-20T16:28:32;6.23;;;4.80;;
4583;SDS011;2304;47.606;12.186;2023-12-20T16:33:34;8.90;;;5.50;;
4583;SDS011;2304;47.606;12.186;2023-12-20T16:38:37;5.33;;;3.70;;
4583;SDS011;2304;47.606;12.186;2023-12-20T16:43:39;7.53;;;3.90;;
4583;SDS011;2304;47.606;12.186;2023-12-20T16:48:41;8.00;;;3.73;;
4583;SDS011;2304;47.606;12.186;2023-12-20T16:53:44;9.43;;;5.33;;
4583;SDS011;2304;47.606;12.186;2023-12-20T16:58:46;9.97;;;8.10;;
4583;SDS011;2304;47.606;12.186;2023-12-20T17:03:48;7.63;;;4.17;;
4583;SDS011;2304;47.606;12.186;2023-12-20T17:08:52;8.80;;;3.87;;
4583;SDS011;2304;47.606;12.186;2023-12-20T17:13:54;3.70;;;3.30;;
4583;SDS011;2304;47.606;12.186;2023-12-20T17:18:58;3.70;;;2.17;;
4583;SDS011;2304;47.606;12.186;2023-12-20T17:24:02;8.30;;;3.80;;
4583;SDS011;2304;47.606;12.186;2023-12-20T17:29:05;6.60;;;2.63;;
4583;SDS011;2304;47.606;12.186;2023-12-20T17:34:06;3.63;;;2.80;;
4583;SDS011;2304;47.606;12.186;2023-12-20T17:39:10;6.00;;;3.57;;
4583;SDS011;2304;47.606;12.186;2023-12-20T17:44:12;4.27;;;3.00;;
4583;SDS011;2304;47.606;12.186;2023-12-20T17:49:15;13.13;;;6.27;;
4583;SDS011;2304;47.606;12.186;2023-12-20T17:54:20;10.07;;;5.67;;
4583;SDS011;2304;47.606;12.186;2023-12-20T17:59:22;6.77;;;4.53;;
4583;SDS011;2304;47.606;12.186;2023-12-20T18:04:24;5.47;;;4.53;;
4583;SDS011;2304;47.606;12.186;2023-12-20T18:09:28;7.03;;;3.70;;
4583;SDS011;2304;47.606;12.186;2023-12-20T18:14:30;6.13;;;4.60;;
4583;SDS011;2304;47.606;12.186;2023-12-20T18:19:32;9.07;;;6.90;;
4583;SDS011;2304;47.606;12.186;2023-12-20T18:24:35;7.67;;;4.57;;
4583;SDS011;2304;47.606;12.186;2023-12-20T18:29:37;110.43;;;46.50;;
4583;SDS011;2304;47.606;12.186;2023-12-20T18:34:39;31.43;;;16.00;;
4583;SDS011;2304;47.606;12.186;2023-12-20T18:39:42;93.37;;;52.03;;
4583;SDS011;2304;47.606;12.186;2023-12-20T18:44:44;71.67;;;44.47;;
4583;SDS011;2304;47.606;12.186;2023-12-20T18:49:46;40.20;;;26.83;;
4583;SDS011;2304;47.606;12.186;2023-12-20T18:54:49;48.90;;;32.23;;
4583;SDS011;2304;47.606;12.186;2023-12-20T18:59:51;18.63;;;11.50;;
4583;SDS011;2304;47.606;12.186;2023-12-20T19:04:53;15.33;;;10.10;;
4583;SDS011;2304;47.606;12.186;2023-12-20T19:09:56;10.90;;;8.43;;
4583;SDS011;2304;47.606;12.186;2023-12-20T19:14:58;13.57;;;9.33;;
4583;SDS011;2304;47.606;12.186;2023-12-20T19:19:59;9.60;;;5.83;;
4583;SDS011;2304;47.606;12.186;2023-12-20T19:25:06;16.83;;;9.30;;
4583;SDS011;2304;47.606;12.186;2023-12-20T19:30:08;11.53;;;6.10;;
4583;SDS011;2304;47.606;12.186;2023-12-20T19:35:11;6.07;;;4.40;;
4583;SDS011;2304;47.606;12.186;2023-12-20T19:40:14;11.87;;;5.80;;
4583;SDS011;2304;47.606;12.186;2023-12-20T19:45:17;21.40;;;9.93;;
4583;SDS011;2304;47.606;12.186;2023-12-20T19:50:19;39.30;;;18.43;;
4583;SDS011;2304;47.606;12.186;2023-12-20T19:55:22;40.37;;;20.00;;
4583;SDS011;2304;47.606;12.186;2023-12-20T20:00:24;13.60;;;4.17;;
4583;SDS011;2304;47.606;12.186;2023-12-20T20:05:26;11.43;;;5.47;;
4583;SDS011;2304;47.606;12.186;2023-12-20T20:10:29;8.90;;;4.93;;
4583;SDS011;2304;47.606;12.186;2023-12-20T20:15:31;38.90;;;20.67;;
4583;SDS011;2304;47.606;12.186;2023-12-20T20:20:33;30.43;;;17.90;;
4583;SDS011;2304;47.606;12.186;2023-12-20T20:25:36;21.57;;;14.10;;
4583;SDS011;2304;47.606;12.186;2023-12-20T20:30:38;19.40;;;13.30;;
4583;SDS011;2304;47.606;12.186;2023-12-20T20:35:40;20.67;;;16.03;;
4583;SDS011;2304;47.606;12.186;2023-12-20T20:40:43;41.93;;;24.57;;
4583;SDS011;2304;47.606;12.186;2023-12-20T20:45:47;37.63;;;16.97;;
4583;SDS011;2304;47.606;12.186;2023-12-20T20:50:49;24.63;;;11.87;;
4583;SDS011;2304;47.606;12.186;2023-12-20T20:55:52;28.90;;;13.00;;
4583;SDS011;2304;47.606;12.186;2023-12-20T21:00:54;37.73;;;17.03;;
4583;SDS011;2304;47.606;12.186;2023-12-20T21:05:56;10.90;;;5.80;;
4583;SDS011;2304;47.606;12.186;2023-12-20T21:10:59;10.83;;;5.70;;
4583;SDS011;2304;47.606;12.186;2023-12-20T21:16:01;13.83;;;8.60;;
4583;SDS011;2304;47.606;12.186;2023-12-20T21:21:03;28.90;;;12.70;;
4583;SDS011;2304;47.606;12.186;2023-12-20T21:26:07;30.60;;;11.70;;
4583;SDS011;2304;47.606;12.186;2023-12-20T21:31:11;19.27;;;10.80;;
4583;SDS011;2304;47.606;12.186;2023-12-20T21:36:12;16.23;;;7.30;;
4583;SDS011;2304;47.606;12.186;2023-12-20T21:41:18;11.70;;;5.63;;
4583;SDS011;2304;47.606;12.186;2023-12-20T21:46:19;8.23;;;5.37;;
4583;SDS011;2304;47.606;12.186;2023-12-20T21:51:21;7.83;;;5.07;;
4583;SDS011;2304;47.606;12.186;2023-12-20T21:56:24;7.63;;;4.60;;
4583;SDS011;2304;47.606;12.186;2023-12-20T22:01:26;12.33;;;5.93;;
4583;SDS011;2304;47.606;12.186;2023-12-20T22:06:28;10.07;;;6.13;;
4583;SDS011;2304;47.606;12.186;2023-12-20T22:11:32;11.67;;;7.37;;
4583;SDS011;2304;47.606;12.186;2023-12-20T22:16:34;14.47;;;6.90;;
4583;SDS011;2304;47.606;12.186;2023-12-20T22:21:37;10.37;;;7.20;;
4583;SDS011;2304;47.606;12.186;2023-12-20T22:26:40;9.77;;;6.50;;
4583;SDS011;2304;47.606;12.186;2023-12-20T22:31:42;9.07;;;6.70;;
4583;SDS011;2304;47.606;12.186;2023-12-20T22:36:44;11.40;;;5.40;;
4583;SDS011;2304;47.606;12.186;2023-12-20T22:41:47;7.87;;;5.00;;
4583;SDS011;2304;47.606;12.186;2023-12-20T22:46:49;9.10;;;5.83;;
4583;SDS011;2304;47.606;12.186;2023-12-20T22:51:51;8.80;;;5.50;;
4583;SDS011;2304;47.606;12.186;2023-12-20T22:56:54;9.60;;;5.57;;
4583;SDS011;2304;47.606;12.186;2023-12-20T23:01:56;7.77;;;5.50;;
4583;SDS011;2304;47.606;12.186;2023-12-20T23:06:57;8.83;;;5.47;;
4583;SDS011;2304;47.606;12.186;2023-12-20T23:12:01;9.20;;;5.10;;
4583;SDS011;2304;47.606;12.186;2023-12-20T23:17:03;7.60;;;5.13;;
4583;SDS011;2304;47.606;12.186;2023-12-20T23:22:05;12.73;;;4.03;;
4583;SDS011;2304;47.606;12.186;2023-12-20T23:27:08;8.43;;;4.50;;
4583;SDS011;2304;47.606;12.186;2023-12-20T23:32:10;7.90;;;4.53;;
4583;SDS011;2304;47.606;12.186;2023-12-20T23:37:11;8.57;;;5.50;;
4583;SDS011;2304;47.606;12.186;2023-12-20T23:42:14;5.50;;;4.20;;
4583;SDS011;2304;47.606;12.186;2023-12-20T23:47:18;12.90;;;5.17;;
4583;SDS011;2304;47.606;12.186;2023-12-20T23:52:19;8.60;;;6.00;;
4583;SDS011;2304;47.606;12.186;2023-12-20T23:57:23;14.57;;;6.77;;
